createdAt,value
2022-09-22T00:01:23.762Z,9.60
2022-09-22T00:03:57.647Z,9.60
2022-09-22T00:06:30.141Z,9.50
2022-09-22T00:09:04.822Z,9.70
2022-09-22T00:11:36.883Z,9.80
2022-09-22T00:14:10.783Z,9.70
2022-09-22T00:16:42.250Z,9.80
2022-09-22T00:19:11.663Z,9.70
2022-09-22T00:21:40.877Z,9.70
2022-09-22T00:24:09.140Z,9.80
2022-09-22T00:26:39.455Z,9.80
2022-09-22T00:29:09.693Z,9.90
2022-09-22T00:31:43.917Z,9.80
2022-09-22T00:34:22.662Z,9.80
2022-09-22T00:36:50.100Z,9.80
2022-09-22T00:39:17.947Z,9.80
2022-09-22T00:41:47.162Z,9.60
2022-09-22T00:44:29.709Z,9.60
2022-09-22T00:47:18.518Z,9.60
2022-09-22T00:50:11.280Z,9.60
2022-09-22T00:52:46.141Z,9.60
2022-09-22T00:55:47.610Z,9.60
2022-09-22T00:58:18.157Z,9.40
2022-09-22T01:00:45.093Z,9.40
2022-09-22T01:03:17.087Z,9.40
2022-09-22T01:05:49.605Z,9.40
2022-09-22T01:08:20.005Z,9.50
2022-09-22T01:10:48.667Z,9.60
2022-09-22T01:13:45.945Z,9.50
2022-09-22T01:16:17.826Z,9.40
2022-09-22T01:19:05.615Z,9.30
2022-09-22T01:21:53.682Z,9.20
2022-09-22T01:24:55.345Z,9.20
2022-09-22T01:27:40.348Z,9.30
2022-09-22T01:30:09.381Z,9.40
2022-09-22T01:32:44.908Z,9.50
2022-09-22T01:35:31.716Z,9.40
2022-09-22T01:38:06.019Z,9.40
2022-09-22T01:40:39.338Z,9.30
2022-09-22T01:43:21.232Z,9.30
2022-09-22T01:45:48.752Z,9.40
2022-09-22T01:48:21.337Z,9.40
2022-09-22T01:50:59.964Z,9.40
2022-09-22T01:53:31.593Z,9.40
2022-09-22T01:56:06.458Z,9.40
2022-09-22T01:59:01.896Z,9.40
2022-09-22T02:01:38.079Z,9.40
2022-09-22T02:04:39.949Z,9.30
2022-09-22T02:07:10.908Z,9.20
2022-09-22T02:12:06.574Z,9.20
2022-09-22T02:14:33.460Z,9.10
2022-09-22T02:17:00.861Z,9.10
2022-09-22T02:19:32.440Z,9.10
2022-09-22T02:21:59.708Z,9.00
2022-09-22T02:24:37.914Z,9.00
2022-09-22T02:27:09.060Z,8.90
2022-09-22T02:29:43.652Z,9.00
2022-09-22T02:32:15.817Z,9.00
2022-09-22T02:34:44.215Z,9.10
2022-09-22T02:37:30.209Z,9.00
2022-09-22T02:40:09.921Z,9.00
2022-09-22T02:45:13.877Z,8.90
2022-09-22T02:50:16.195Z,8.80
2022-09-22T02:52:42.977Z,8.90
2022-09-22T02:55:11.266Z,9.10
2022-09-22T02:57:40.092Z,9.20
2022-09-22T03:00:07.344Z,9.10
2022-09-22T03:02:36.460Z,9.10
2022-09-22T03:05:05.726Z,9.10
2022-09-22T03:07:34.623Z,9.00
2022-09-22T03:10:01.350Z,8.90
2022-09-22T03:12:28.021Z,8.90
2022-09-22T03:14:54.661Z,8.90
2022-09-22T03:17:21.327Z,8.90
2022-09-22T03:19:47.998Z,8.90
2022-09-22T03:22:14.849Z,9.00
2022-09-22T03:24:41.521Z,9.00
2022-09-22T03:27:08.160Z,9.00
2022-09-22T03:29:34.887Z,9.00
2022-09-22T03:32:01.734Z,9.00
2022-09-22T03:34:30.863Z,9.00
2022-09-22T03:36:57.496Z,9.00
2022-09-22T03:39:24.148Z,9.10
2022-09-22T03:41:50.771Z,9.10
2022-09-22T03:44:18.000Z,9.20
2022-09-22T03:46:46.870Z,9.10
2022-09-22T03:49:13.522Z,9.00
2022-09-22T03:51:42.681Z,9.00
2022-09-22T03:54:09.369Z,9.00
2022-09-22T03:56:36.010Z,9.00
2022-09-22T03:59:05.553Z,8.90
2022-09-22T04:01:35.247Z,8.80
2022-09-22T04:04:04.488Z,8.90
2022-09-22T04:06:31.451Z,8.90
2022-09-22T04:08:58.106Z,9.00
2022-09-22T04:11:24.812Z,8.90
2022-09-22T04:13:54.169Z,8.90
2022-09-22T04:16:21.466Z,9.00
2022-09-22T04:18:50.588Z,9.00
2022-09-22T04:21:17.302Z,8.90
2022-09-22T04:23:46.500Z,9.00
2022-09-22T04:26:13.154Z,8.90
2022-09-22T04:28:39.928Z,9.00
2022-09-22T04:31:11.883Z,8.90
2022-09-22T04:33:38.599Z,9.00
2022-09-22T04:36:05.657Z,8.90
2022-09-22T04:38:32.311Z,8.90
2022-09-22T04:40:58.952Z,8.90
2022-09-22T04:43:25.622Z,8.90
2022-09-22T04:45:52.425Z,8.90
2022-09-22T04:48:19.446Z,8.90
2022-09-22T04:50:48.216Z,8.90
2022-09-22T04:53:15.346Z,8.90
2022-09-22T04:55:46.670Z,8.80
2022-09-22T04:58:13.982Z,8.90
2022-09-22T05:00:40.725Z,8.90
2022-09-22T05:03:09.478Z,8.80
2022-09-22T05:05:36.483Z,8.90
2022-09-22T05:08:03.275Z,8.90
2022-09-22T05:10:32.242Z,8.80
2022-09-22T05:12:59.063Z,8.90
2022-09-22T05:15:32.615Z,8.90
2022-09-22T05:17:59.691Z,8.90
2022-09-22T05:20:27.014Z,8.90
2022-09-22T05:22:54.747Z,8.90
2022-09-22T05:25:23.997Z,8.90
2022-09-22T05:27:55.272Z,8.90
2022-09-22T05:30:24.015Z,8.90
2022-09-22T05:32:53.451Z,8.90
2022-09-22T05:35:25.237Z,8.90
2022-09-22T05:37:56.571Z,9.00
2022-09-22T05:40:26.683Z,9.00
2022-09-22T05:42:56.348Z,9.00
2022-09-22T05:45:23.111Z,9.00
2022-09-22T05:47:50.203Z,9.00
2022-09-22T05:50:20.749Z,9.10
2022-09-22T05:52:49.969Z,9.10
2022-09-22T05:55:16.721Z,9.10
2022-09-22T05:57:48.400Z,9.10
2022-09-22T06:00:15.276Z,9.10
2022-09-22T06:02:44.597Z,9.20
2022-09-22T06:05:11.475Z,9.20
2022-09-22T06:07:40.483Z,9.20
2022-09-22T06:10:07.665Z,9.30
2022-09-22T06:12:34.333Z,9.30
2022-09-22T06:15:04.668Z,9.30
2022-09-22T06:17:33.578Z,9.30
2022-09-22T06:20:00.788Z,9.30
2022-09-22T06:22:27.585Z,9.30
2022-09-22T06:24:56.753Z,9.30
2022-09-22T06:27:23.487Z,9.30
2022-09-22T06:29:50.120Z,9.40
2022-09-22T06:32:18.061Z,9.40
2022-09-22T06:34:45.969Z,9.60
2022-09-22T06:37:16.115Z,9.50
2022-09-22T06:39:42.749Z,9.50
2022-09-22T06:42:10.854Z,9.50
2022-09-22T06:44:41.189Z,9.50
2022-09-22T06:47:10.114Z,9.50
2022-09-22T06:49:36.849Z,9.60
2022-09-22T06:52:03.797Z,9.60
2022-09-22T06:54:32.714Z,9.70
2022-09-22T06:57:03.901Z,9.70
2022-09-22T06:59:33.354Z,9.70
2022-09-22T07:02:00.200Z,9.70
2022-09-22T07:04:27.244Z,9.70
2022-09-22T07:06:56.266Z,9.80
2022-09-22T07:09:25.396Z,9.80
2022-09-22T07:11:52.245Z,9.80
2022-09-22T07:14:22.323Z,9.90
2022-09-22T07:16:52.410Z,9.90
2022-09-22T07:24:15.792Z,9.80
2022-09-22T07:34:08.645Z,10.10
2022-09-22T07:36:37.022Z,10.10
2022-09-22T07:39:12.990Z,10.20
2022-09-22T07:41:43.375Z,10.30
2022-09-22T07:44:31.190Z,10.40
2022-09-22T07:47:00.837Z,10.50
2022-09-22T07:49:27.702Z,10.60
2022-09-22T07:51:54.855Z,10.60
2022-09-22T07:54:22.440Z,10.60
2022-09-22T07:56:50.066Z,10.70
2022-09-22T07:59:16.845Z,10.80
2022-09-22T08:01:47.581Z,10.80
2022-09-22T08:04:16.631Z,10.80
2022-09-22T08:06:44.786Z,10.90
2022-09-22T08:09:12.815Z,11.00
2022-09-22T08:11:40.196Z,11.00
2022-09-22T08:14:10.930Z,11.10
2022-09-22T08:16:40.260Z,11.20
2022-09-22T08:19:12.432Z,11.40
2022-09-22T08:21:48.456Z,11.40
2022-09-22T08:24:21.972Z,11.50
2022-09-22T08:26:55.938Z,11.60
2022-09-22T08:29:24.296Z,11.80
2022-09-22T08:31:51.416Z,11.80
2022-09-22T08:34:22.438Z,12.00
2022-09-22T08:36:49.773Z,12.00
2022-09-22T08:39:17.768Z,12.10
2022-09-22T08:42:08.217Z,12.20
2022-09-22T08:44:57.281Z,12.30
2022-09-22T08:47:59.664Z,12.30
2022-09-22T08:50:55.293Z,12.50
2022-09-22T08:53:23.303Z,12.50
2022-09-22T08:56:00.460Z,12.70
2022-09-22T08:58:45.163Z,12.80
2022-09-22T09:01:33.909Z,12.80
2022-09-22T09:04:08.572Z,13.00
2022-09-22T09:06:40.874Z,13.00
2022-09-22T09:09:43.384Z,13.30
2022-09-22T09:12:24.546Z,13.30
2022-09-22T09:15:15.597Z,13.40
2022-09-22T09:17:46.001Z,13.50
2022-09-22T09:20:21.874Z,13.50
2022-09-22T09:22:57.388Z,13.70
2022-09-22T09:25:37.595Z,13.80
2022-09-22T09:28:18.721Z,13.80
2022-09-22T09:30:51.245Z,14.00
2022-09-22T09:33:33.687Z,14.20
2022-09-22T09:36:01.699Z,14.30
2022-09-22T09:38:47.206Z,14.40
2022-09-22T09:41:22.260Z,14.60
2022-09-22T09:43:56.152Z,14.80
2022-09-22T09:46:58.593Z,14.90
2022-09-22T09:49:25.322Z,15.00
2022-09-22T09:51:55.772Z,15.10
2022-09-22T09:54:28.003Z,15.10
2022-09-22T09:57:27.565Z,15.20
2022-09-22T10:00:31.916Z,15.40
2022-09-22T10:03:04.837Z,15.70
2022-09-22T10:05:37.547Z,15.80
2022-09-22T10:08:20.952Z,16.00
2022-09-22T10:10:50.920Z,16.00
2022-09-22T10:13:24.564Z,16.10
2022-09-22T10:16:11.588Z,16.20
2022-09-22T10:18:40.489Z,16.30
2022-09-22T10:21:22.469Z,16.30
2022-09-22T10:23:51.766Z,16.20
2022-09-22T10:26:21.710Z,16.30
2022-09-22T10:29:21.130Z,16.50
2022-09-22T10:32:13.679Z,16.60
2022-09-22T10:34:50.479Z,16.40
2022-09-22T10:37:26.958Z,16.30
2022-09-22T10:39:58.800Z,16.10
2022-09-22T10:42:37.867Z,16.20
2022-09-22T10:45:09.837Z,16.40
2022-09-22T10:47:52.796Z,16.60
2022-09-22T10:50:28.405Z,16.70
2022-09-22T10:53:10.891Z,16.80
2022-09-22T10:55:48.835Z,16.90
2022-09-22T10:58:29.636Z,16.80
2022-09-22T11:01:10.521Z,16.60
2022-09-22T11:04:04.115Z,16.70
2022-09-22T11:07:09.327Z,16.70
2022-09-22T11:10:40.149Z,16.60
2022-09-22T11:13:31.264Z,16.60
2022-09-22T11:16:35.608Z,16.70
2022-09-22T11:19:21.920Z,16.80
2022-09-22T11:22:05.782Z,16.60
2022-09-22T11:24:32.505Z,16.70
2022-09-22T11:27:01.589Z,16.80
2022-09-22T11:29:52.900Z,16.90
2022-09-22T11:32:49.791Z,16.90
2022-09-22T11:35:22.212Z,17.00
2022-09-22T11:37:58.719Z,17.00
2022-09-22T11:40:52.678Z,16.80
2022-09-22T11:44:00.373Z,16.80
2022-09-22T11:46:29.972Z,16.90
2022-09-22T11:49:20.280Z,17.00
2022-09-22T11:52:07.228Z,17.00
2022-09-22T11:54:46.957Z,17.00
2022-09-22T11:57:21.801Z,17.10
2022-09-22T12:00:03.974Z,17.00
2022-09-22T12:02:49.374Z,17.00
2022-09-22T12:05:21.405Z,17.00
2022-09-22T12:08:06.589Z,17.00
2022-09-22T12:10:36.351Z,17.10
2022-09-22T12:13:04.402Z,17.00
2022-09-22T12:15:42.527Z,17.10
2022-09-22T12:18:14.665Z,17.10
2022-09-22T12:21:02.426Z,17.20
2022-09-22T12:23:47.683Z,17.10
2022-09-22T12:26:32.851Z,17.20
2022-09-22T12:29:01.847Z,17.30
2022-09-22T12:31:37.790Z,17.30
2022-09-22T12:34:15.432Z,17.20
2022-09-22T12:36:42.535Z,17.20
2022-09-22T12:39:14.152Z,17.30
2022-09-22T12:41:57.887Z,17.40
2022-09-22T12:44:44.925Z,17.40
2022-09-22T12:47:33.519Z,17.30
2022-09-22T12:50:27.604Z,17.30
2022-09-22T12:52:54.346Z,17.30
2022-09-22T12:55:30.086Z,17.30
2022-09-22T12:58:02.375Z,17.30
2022-09-22T13:00:40.695Z,17.30
2022-09-22T13:03:25.681Z,17.30
2022-09-22T13:05:53.753Z,17.30
2022-09-22T13:08:23.520Z,17.40
2022-09-22T13:10:51.646Z,17.30
2022-09-22T13:13:23.651Z,17.40
2022-09-22T13:15:55.552Z,17.40
2022-09-22T13:18:46.934Z,17.50
2022-09-22T13:21:13.602Z,17.60
2022-09-22T13:23:57.645Z,17.70
2022-09-22T13:26:26.834Z,17.50
2022-09-22T13:29:11.679Z,17.60
2022-09-22T13:31:52.735Z,17.70
2022-09-22T13:34:33.454Z,17.60
2022-09-22T13:37:15.449Z,17.60
2022-09-22T13:39:47.632Z,17.60
2022-09-22T13:42:19.264Z,17.60
2022-09-22T13:44:50.855Z,17.60
2022-09-22T13:47:21.892Z,17.60
2022-09-22T13:49:57.539Z,17.60
2022-09-22T13:52:30.110Z,17.70
2022-09-22T13:55:21.328Z,17.60
2022-09-22T13:57:48.634Z,17.60
2022-09-22T14:00:38.221Z,17.60
2022-09-22T14:03:21.176Z,17.70
2022-09-22T14:05:53.609Z,17.70
2022-09-22T14:08:28.969Z,17.90
2022-09-22T14:10:57.336Z,18.10
2022-09-22T14:13:55.917Z,18.20
2022-09-22T14:16:56.586Z,18.30
2022-09-22T14:19:29.516Z,18.60
2022-09-22T14:21:59.308Z,19.00
2022-09-22T14:24:27.638Z,19.40
2022-09-22T14:27:18.151Z,19.70
2022-09-22T14:29:49.267Z,20.20
2022-09-22T14:32:19.061Z,21.00
2022-09-22T15:22:46.504Z,19.80
2022-09-22T15:43:11.614Z,18.90
2022-09-22T15:56:06.133Z,18.30
2022-09-22T16:28:43.398Z,17.40
2022-09-22T16:41:07.655Z,17.20
2022-09-22T16:43:36.619Z,17.20
2022-09-22T17:13:43.360Z,16.70
2022-09-22T17:52:02.757Z,15.30
2022-09-22T18:46:56.911Z,13.90
2022-09-22T18:49:23.937Z,13.90
2022-09-22T18:51:51.486Z,13.80
2022-09-22T18:54:21.386Z,13.80
2022-09-22T19:07:08.964Z,13.80
2022-09-22T19:09:36.197Z,13.70
2022-09-22T19:17:10.343Z,13.50
2022-09-22T19:19:42.139Z,13.30
2022-09-22T21:06:15.842Z,12.00
2022-09-22T21:09:02.321Z,12.20
2022-09-22T21:11:30.114Z,12.00
2022-09-22T21:14:02.060Z,11.80
2022-09-22T21:16:33.741Z,11.70
2022-09-22T21:19:03.427Z,11.70
2022-09-22T21:21:31.812Z,11.60
2022-09-22T21:24:01.817Z,11.60
2022-09-22T21:26:29.891Z,11.60
2022-09-22T21:29:00.020Z,11.60
2022-09-22T21:31:27.791Z,11.60
2022-09-22T21:33:56.709Z,11.80
2022-09-22T21:36:24.831Z,11.60
2022-09-22T21:38:58.901Z,11.70
2022-09-22T21:41:27.923Z,11.60
2022-09-22T21:43:55.403Z,11.70
2022-09-22T21:46:29.512Z,11.60
2022-09-22T21:49:06.808Z,11.60
2022-09-22T21:51:41.224Z,11.50
2022-09-22T21:54:13.047Z,11.60
2022-09-22T21:56:39.822Z,11.60
2022-09-22T21:59:06.883Z,11.60
2022-09-22T22:01:36.312Z,11.60
2022-09-22T22:04:07.741Z,11.70
2022-09-22T22:06:40.670Z,11.70
2022-09-22T22:09:14.582Z,11.70
2022-09-22T22:12:00.610Z,11.60
2022-09-22T22:14:31.941Z,11.60
2022-09-22T22:16:58.635Z,11.50
2022-09-22T22:19:26.901Z,11.50
2022-09-22T22:21:56.426Z,11.50
2022-09-22T22:24:28.767Z,11.40
2022-09-22T22:27:06.528Z,11.50
2022-09-22T22:29:38.419Z,11.40
2022-09-22T22:32:07.542Z,11.50
2022-09-22T22:34:34.279Z,11.50
2022-09-22T22:37:01.080Z,11.50
2022-09-22T22:39:28.327Z,11.50
2022-09-22T22:41:55.284Z,11.50
2022-09-22T22:44:22.670Z,11.50
2022-09-22T22:46:51.823Z,11.50
2022-09-22T23:09:13.831Z,11.00
2022-09-22T23:11:41.110Z,11.20
2022-09-22T23:14:12.666Z,11.10
2022-09-22T23:16:41.386Z,11.20
